Time;durP1;ratioP1;P1;durP2;ratioP2;P2;SDS_P1;SDS_P2;PMS_P1;PMS_P2;Temp;Humidity;BMP_temperature;BMP_pressure;BME280_temperature;BME280_humidity;BME280_pressure;Samples;Min_cycle;Max_cycle;Signal;HPM_P1;HPM_P2
2022/05/04 05:29:36;;;;;;;13.40;9.97;;;12.50;99.90;;;;;;5069555;27;1236114;-73
2022/05/04 05:32:02;;;;;;;17.63;11.20;;;12.30;99.90;;;;;;5082087;28;20440;-73
2022/05/04 05:34:31;;;;;;;11.80;9.50;;;12.40;99.90;;;;;;5057338;28;20756;-74
2022/05/04 05:36:57;;;;;;;17.33;11.17;;;12.50;99.90;;;;;;5078729;28;20203;-70
2022/05/04 05:39:23;;;;;;;19.10;11.77;;;12.60;99.90;;;;;;5076416;28;20436;-74
2022/05/04 05:41:48;;;;;;;16.00;10.60;;;12.70;99.90;;;;;;5078814;28;20201;-73
2022/05/04 05:44:14;;;;;;;20.03;11.60;;;12.80;99.90;;;;;;5079141;28;20408;-72
2022/05/04 05:46:39;;;;;;;35.10;15.80;;;12.90;99.90;;;;;;5077239;28;20178;-73
2022/05/04 05:49:05;;;;;;;19.77;10.97;;;13.00;99.90;;;;;;5082162;28;20567;-73
2022/05/04 05:51:30;;;;;;;16.80;11.80;;;13.00;99.90;;;;;;5071741;28;20277;-72
2022/05/04 05:53:56;;;;;;;13.60;9.43;;;13.10;99.90;;;;;;5062499;28;20246;-73
2022/05/04 05:56:21;;;;;;;16.73;10.67;;;13.10;99.90;;;;;;5070938;28;21151;-74
2022/05/04 05:58:47;;;;;;;15.97;10.43;;;13.20;99.90;;;;;;5094750;28;20595;-74
2022/05/04 06:01:12;;;;;;;15.30;10.10;;;13.30;99.90;;;;;;5066383;28;20202;-74
2022/05/04 06:03:38;;;;;;;14.47;9.40;;;13.30;99.90;;;;;;5086218;28;20206;-73
2022/05/04 06:06:03;;;;;;;23.47;11.77;;;13.40;99.90;;;;;;5081175;28;20186;-74
2022/05/04 06:08:29;;;;;;;18.03;11.07;;;13.40;99.90;;;;;;5070077;28;20217;-73
2022/05/04 06:10:54;;;;;;;17.13;11.63;;;13.50;99.90;;;;;;5078316;28;20193;-74
2022/05/04 06:13:20;;;;;;;19.33;10.80;;;13.50;99.90;;;;;;5058321;28;20188;-73
2022/05/04 06:15:45;;;;;;;15.30;10.77;;;13.50;99.90;;;;;;5077490;28;20185;-72
2022/05/04 06:18:12;;;;;;;16.43;10.27;;;13.50;99.90;;;;;;5077092;28;20186;-73
2022/05/04 06:20:38;;;;;;;15.07;10.27;;;13.60;99.90;;;;;;5076222;28;20220;-75
2022/05/04 06:23:04;;;;;;;29.23;13.40;;;13.60;99.90;;;;;;5072640;28;20822;-75
2022/05/04 06:25:29;;;;;;;16.63;11.67;;;13.60;99.90;;;;;;5084535;28;20440;-72
2022/05/04 06:27:55;;;;;;;13.30;9.93;;;13.60;99.90;;;;;;5092106;28;20459;-71
2022/05/04 06:35:49;;;;;;;13.30;9.80;;;13.70;99.90;;;;;;5071814;28;21069;-74
2022/05/04 06:38:15;;;;;;;20.50;12.00;;;13.60;99.90;;;;;;5058909;28;20510;-73
2022/05/04 06:40:40;;;;;;;17.27;10.60;;;13.60;99.90;;;;;;5065540;28;20240;-73
2022/05/04 06:43:06;;;;;;;18.50;11.23;;;13.60;99.90;;;;;;5063916;28;20190;-73
2022/05/04 06:45:31;;;;;;;21.13;12.73;;;13.70;99.90;;;;;;5062572;28;20244;-73
2022/05/04 06:47:57;;;;;;;20.70;12.60;;;13.60;99.90;;;;;;5062012;28;20212;-72
2022/05/04 06:50:22;;;;;;;26.97;12.70;;;13.70;99.90;;;;;;5060724;28;20195;-73
2022/05/04 06:52:48;;;;;;;21.43;12.33;;;13.70;99.90;;;;;;5064000;28;20603;-74
2022/05/04 06:55:13;;;;;;;21.03;12.37;;;13.70;99.90;;;;;;5055180;28;20216;-72
2022/05/04 06:57:39;;;;;;;27.30;14.60;;;13.70;99.90;;;;;;5060730;28;20202;-72
2022/05/04 07:00:06;;;;;;;18.17;10.17;;;13.80;99.90;;;;;;5056937;28;20667;-73
2022/05/04 07:02:35;;;;;;;21.43;11.60;;;13.80;99.90;;;;;;5061221;28;20277;-73
2022/05/04 07:05:03;;;;;;;19.63;11.50;;;13.80;99.90;;;;;;5061971;28;20435;-72
2022/05/04 07:07:28;;;;;;;18.53;11.03;;;14.00;99.90;;;;;;5070277;28;20423;-72
2022/05/04 07:09:54;;;;;;;19.20;10.77;;;13.90;99.90;;;;;;5065486;28;20837;-72
2022/05/04 07:12:21;;;;;;;17.07;11.00;;;14.10;99.90;;;;;;5061404;28;20612;-71
2022/05/04 07:14:46;;;;;;;20.10;11.87;;;14.10;99.90;;;;;;5063502;28;20265;-73
2022/05/04 07:17:12;;;;;;;24.60;13.80;;;14.20;99.90;;;;;;5068365;28;20455;-72
2022/05/04 07:19:38;;;;;;;17.30;11.10;;;14.30;99.90;;;;;;5068771;28;20190;-73
2022/05/04 07:22:04;;;;;;;17.40;11.87;;;14.30;99.90;;;;;;5065312;28;20221;-72
2022/05/04 07:24:30;;;;;;;17.33;11.87;;;14.30;99.90;;;;;;5066358;28;20202;-73
2022/05/04 07:26:55;;;;;;;23.90;12.33;;;14.30;99.90;;;;;;5039128;28;20447;-72
2022/05/04 07:29:21;;;;;;;12.43;9.40;;;14.20;99.90;;;;;;5060640;28;20325;-71
2022/05/04 07:31:47;;;;;;;14.33;11.00;;;14.10;99.90;;;;;;5061129;28;20430;-71
2022/05/04 07:34:17;;;;;;;12.80;10.47;;;14.20;99.90;;;;;;5059972;28;20185;-73
2022/05/04 07:36:44;;;;;;;15.47;11.23;;;14.20;99.90;;;;;;5064396;28;20182;-72
2022/05/04 07:42:21;;;;;;;11.80;9.97;;;14.10;99.90;;;;;;5055645;28;20882;-71
2022/05/04 07:44:40;;;;;;;12.97;10.40;;;14.20;99.90;;;;;;5062692;28;21137;-72
2022/05/04 07:47:06;;;;;;;24.80;13.63;;;14.20;99.90;;;;;;5048120;28;20439;-73
2022/05/04 07:49:32;;;;;;;14.50;10.40;;;14.30;99.90;;;;;;5059746;28;20469;-71
2022/05/04 07:51:58;;;;;;;15.07;11.07;;;14.40;99.90;;;;;;5063852;28;20448;-73
2022/05/04 07:54:24;;;;;;;16.47;11.17;;;14.40;99.90;;;;;;5058304;28;20229;-72
2022/05/04 07:56:49;;;;;;;21.27;12.83;;;14.40;99.90;;;;;;5064531;28;21042;-72
2022/05/04 07:59:15;;;;;;;17.83;11.27;;;14.40;99.90;;;;;;5062214;28;20260;-71
2022/05/04 08:04:25;;;;;;;31.20;14.57;;;14.50;99.90;;;;;;5059989;28;20596;-71
2022/05/04 08:06:50;;;;;;;35.43;14.60;;;14.50;99.90;;;;;;5059275;28;20429;-73
2022/05/04 08:09:16;;;;;;;21.30;12.37;;;14.60;99.90;;;;;;5052172;28;20906;-71
2022/05/04 08:11:43;;;;;;;19.43;11.43;;;14.70;99.90;;;;;;5031202;28;20697;-71
2022/05/04 08:14:09;;;;;;;17.30;11.70;;;14.70;99.90;;;;;;5041475;28;20432;-72
2022/05/04 08:16:35;;;;;;;30.13;14.63;;;14.80;99.90;;;;;;5059021;28;20586;-71
2022/05/04 08:19:00;;;;;;;20.13;12.17;;;14.90;99.90;;;;;;5056714;28;20514;-72
2022/05/04 08:21:26;;;;;;;17.03;10.93;;;15.00;99.90;;;;;;5064427;28;20210;-73
2022/05/04 08:23:52;;;;;;;18.20;11.80;;;15.00;99.90;;;;;;5061880;28;20569;-73
2022/05/04 08:26:18;;;;;;;16.70;11.17;;;15.10;99.90;;;;;;5062367;28;20795;-74
2022/05/04 08:28:43;;;;;;;21.97;12.13;;;15.20;99.90;;;;;;5058299;28;20209;-72
2022/05/04 08:31:09;;;;;;;13.93;9.97;;;15.30;99.90;;;;;;5057348;28;20209;-73
2022/05/04 08:33:35;;;;;;;20.53;12.40;;;15.20;99.90;;;;;;5060635;28;20251;-73
2022/05/04 08:36:01;;;;;;;14.17;9.73;;;15.30;99.90;;;;;;5056747;28;20186;-72
2022/05/04 08:38:27;;;;;;;19.93;11.57;;;15.30;99.90;;;;;;5063223;28;20455;-71
2022/05/04 08:40:57;;;;;;;19.73;10.63;;;15.40;99.90;;;;;;5059499;28;20471;-71
2022/05/04 08:43:24;;;;;;;17.83;11.27;;;15.50;99.90;;;;;;5065741;28;20198;-73
2022/05/04 08:45:53;;;;;;;16.53;11.13;;;15.60;99.90;;;;;;5057807;28;20437;-75
2022/05/04 08:48:20;;;;;;;15.30;10.03;;;15.70;99.90;;;;;;5062032;28;20456;-73
2022/05/04 08:50:46;;;;;;;16.40;10.37;;;15.80;99.90;;;;;;5065521;28;20449;-73
2022/05/04 08:53:13;;;;;;;19.70;11.57;;;16.00;99.90;;;;;;5066876;28;20944;-73
2022/05/04 08:55:41;;;;;;;14.07;10.50;;;16.10;99.90;;;;;;5062464;28;20201;-72
2022/05/04 08:58:07;;;;;;;16.73;10.30;;;16.10;99.90;;;;;;5058466;28;20437;-72
2022/05/04 09:00:33;;;;;;;18.80;11.03;;;16.00;99.90;;;;;;5037592;28;20464;-74
2022/05/04 09:02:58;;;;;;;15.83;10.70;;;16.00;99.90;;;;;;5062314;28;20855;-73
2022/05/04 09:05:26;;;;;;;13.97;9.80;;;16.00;99.90;;;;;;5060764;28;20232;-72
2022/05/04 09:07:57;;;;;;;13.00;10.23;;;16.10;99.90;;;;;;5049815;28;20206;-72
2022/05/04 09:10:26;;;;;;;14.47;10.00;;;16.20;99.90;;;;;;5059183;28;20558;-72
2022/05/04 09:12:55;;;;;;;17.63;10.27;;;16.20;99.90;;;;;;5051088;28;20539;-72
2022/05/04 09:15:29;;;;;;;14.33;10.80;;;16.10;99.90;;;;;;5038702;28;20444;-72
2022/05/04 09:18:00;;;;;;;20.83;11.53;;;16.20;99.90;;;;;;5026823;28;20437;-72
2022/05/04 09:20:48;;;;;;;15.90;11.00;;;16.10;99.90;;;;;;5055138;28;21096;-72
2022/05/04 09:23:22;;;;;;;29.30;14.90;;;16.10;99.90;;;;;;5048925;28;20818;-71
2022/05/04 09:25:52;;;;;;;11.23;8.47;;;16.20;99.90;;;;;;5033697;28;20508;-73
2022/05/04 09:28:18;;;;;;;17.70;10.60;;;16.20;99.90;;;;;;5054105;28;20868;-72
2022/05/04 09:30:55;;;;;;;17.57;11.87;;;16.40;99.90;;;;;;5058223;28;20448;-71
2022/05/04 09:33:21;;;;;;;28.70;13.70;;;16.50;99.90;;;;;;5062322;28;20431;-72
2022/05/04 09:35:48;;;;;;;15.50;9.83;;;16.70;99.90;;;;;;5064311;28;20439;-73
2022/05/04 09:46:37;;;;;;;16.23;10.50;;;17.00;99.90;;;;;;5062566;28;20439;-77
2022/05/04 09:49:09;;;;;;;17.73;11.23;;;17.00;99.90;;;;;;5037422;28;20491;-75
2022/05/04 09:51:35;;;;;;;18.03;11.47;;;16.90;99.90;;;;;;5057369;28;20451;-75
2022/05/04 09:54:14;;;;;;;18.03;12.77;;;17.00;99.90;;;;;;5067305;28;20431;-75
2022/05/04 09:56:40;;;;;;;14.43;10.17;;;17.10;99.90;;;;;;5060951;28;20213;-75
2022/05/04 09:59:06;;;;;;;14.63;10.73;;;17.20;99.90;;;;;;5045006;28;20432;-75
2022/05/04 10:01:33;;;;;;;17.17;10.87;;;17.20;99.90;;;;;;5065730;28;20937;-75
2022/05/04 10:04:00;;;;;;;12.70;10.00;;;17.20;99.90;;;;;;5043062;28;20204;-77
2022/05/04 10:06:27;;;;;;;13.27;11.67;;;17.40;99.90;;;;;;5061962;28;20440;-76
2022/05/04 10:08:54;;;;;;;22.60;12.83;;;17.50;99.90;;;;;;5065582;28;20455;-74
2022/05/04 10:11:21;;;;;;;13.07;11.33;;;17.60;99.90;;;;;;5060279;28;20451;-74
2022/05/04 10:13:49;;;;;;;15.00;10.57;;;17.70;99.90;;;;;;5052222;28;20499;-73
2022/05/04 10:16:15;;;;;;;24.20;14.20;;;17.60;99.90;;;;;;5064401;28;20511;-74
2022/05/04 10:18:43;;;;;;;11.73;10.03;;;17.50;99.90;;;;;;5062644;28;20787;-74
2022/05/04 10:21:12;;;;;;;16.47;11.53;;;17.50;99.90;;;;;;5065159;28;20454;-78
2022/05/04 10:23:43;;;;;;;21.80;12.40;;;17.70;99.90;;;;;;5065785;28;20917;-78
2022/05/04 10:26:12;;;;;;;17.37;11.67;;;17.90;99.90;;;;;;5041653;28;20957;-75
2022/05/04 10:28:41;;;;;;;26.93;14.67;;;18.10;99.90;;;;;;5044054;28;20503;-77
2022/05/04 10:31:12;;;;;;;20.13;12.47;;;18.30;99.90;;;;;;5044234;28;20472;-76
2022/05/04 10:33:38;;;;;;;14.70;11.30;;;18.40;99.90;;;;;;5060777;28;20455;-76
2022/05/04 10:36:27;;;;;;;17.17;11.90;;;18.40;99.90;;;;;;5044769;28;20496;-76
2022/05/04 10:38:56;;;;;;;15.60;11.57;;;18.60;99.90;;;;;;5056391;28;20463;-78
2022/05/04 10:41:35;;;;;;;19.23;12.97;;;18.70;99.90;;;;;;5070147;28;20550;-75
2022/05/04 10:44:01;;;;;;;14.17;11.50;;;18.60;99.90;;;;;;5042600;28;20953;-75
2022/05/04 10:46:30;;;;;;;19.43;11.17;;;18.50;99.90;;;;;;5061324;28;20433;-75
2022/05/04 10:49:08;;;;;;;12.50;11.00;;;18.50;99.90;;;;;;5065011;28;20452;-73
2022/05/04 10:51:36;;;;;;;13.83;11.63;;;18.40;99.90;;;;;;5041213;28;20968;-73
2022/05/04 10:54:04;;;;;;;14.50;11.43;;;18.50;99.90;;;;;;5066032;28;20957;-77
2022/05/04 10:56:47;;;;;;;16.10;11.90;;;18.50;99.90;;;;;;5064483;28;20531;-76
2022/05/04 10:59:31;;;;;;;16.13;12.60;;;18.50;99.90;;;;;;5044421;28;20802;-75
2022/05/04 11:02:05;;;;;;;19.80;12.70;;;18.40;99.90;;;;;;5060639;28;20833;-73
2022/05/04 11:04:32;;;;;;;14.30;11.93;;;18.30;99.90;;;;;;5041360;28;20787;-75
2022/05/04 11:07:04;;;;;;;28.77;15.13;;;18.40;99.90;;;;;;5045981;28;20428;-74
2022/05/04 11:09:38;;;;;;;16.30;12.43;;;18.50;99.90;;;;;;5060551;28;20515;-74
2022/05/04 11:12:05;;;;;;;13.07;11.03;;;18.50;99.90;;;;;;5065207;28;20552;-74
2022/05/04 11:14:34;;;;;;;16.63;12.27;;;18.60;99.90;;;;;;5071263;28;20436;-74
2022/05/04 11:17:00;;;;;;;20.47;13.13;;;18.60;99.90;;;;;;5067087;28;20433;-74
2022/05/04 11:19:28;;;;;;;15.00;11.80;;;18.70;99.90;;;;;;5065507;28;20440;-74
2022/05/04 11:21:55;;;;;;;17.53;12.23;;;18.80;99.90;;;;;;5061469;28;20448;-74
2022/05/04 11:24:21;;;;;;;15.83;11.17;;;18.90;99.90;;;;;;5067356;28;20453;-75
2022/05/04 11:26:52;;;;;;;16.33;11.20;;;19.20;99.90;;;;;;5075499;28;20499;-75
2022/05/04 11:29:24;;;;;;;20.90;13.20;;;19.40;99.90;;;;;;5043878;28;20690;-75
2022/05/04 11:31:54;;;;;;;14.50;11.77;;;19.70;99.90;;;;;;5079315;28;20447;-75
2022/05/04 11:34:22;;;;;;;15.33;12.33;;;19.60;99.90;;;;;;5057566;28;20417;-75
2022/05/04 11:36:48;;;;;;;13.00;11.23;;;19.90;99.90;;;;;;5065391;28;20627;-75
2022/05/04 11:39:22;;;;;;;20.20;13.13;;;19.90;99.90;;;;;;5053665;28;20428;-74
2022/05/04 11:41:50;;;;;;;19.80;12.80;;;20.30;99.90;;;;;;5067558;28;21041;-76
2022/05/04 11:44:21;;;;;;;21.50;13.43;;;20.60;99.90;;;;;;5043538;28;20425;-73
2022/05/04 11:46:48;;;;;;;14.70;12.60;;;20.80;99.90;;;;;;5067059;28;20439;-75
2022/05/04 11:49:14;;;;;;;19.37;13.23;;;20.90;99.90;;;;;;5063985;28;20464;-75
2022/05/04 11:51:40;;;;;;;14.50;11.57;;;20.90;99.90;;;;;;5043631;28;20468;-75
2022/05/04 11:54:06;;;;;;;19.07;13.33;;;20.90;99.90;;;;;;5046002;28;20517;-75
2022/05/04 11:56:34;;;;;;;21.67;13.43;;;20.90;99.90;;;;;;5063583;28;20524;-76
2022/05/04 11:59:00;;;;;;;24.83;14.67;;;21.20;99.90;;;;;;5065134;28;20235;-74
2022/05/04 12:01:26;;;;;;;26.73;14.70;;;21.70;99.90;;;;;;5047819;28;20862;-74
2022/05/04 12:03:52;;;;;;;19.60;13.67;;;22.70;99.90;;;;;;5045322;28;20193;-76
2022/05/04 12:06:19;;;;;;;17.80;12.50;;;23.60;99.90;;;;;;5068218;28;20694;-75
2022/05/04 12:08:45;;;;;;;18.20;12.33;;;24.40;99.90;;;;;;5062159;28;20467;-75
2022/05/04 12:11:11;;;;;;;20.67;12.60;;;25.00;99.90;;;;;;5064730;28;20560;-75
2022/05/04 12:13:41;;;;;;;17.13;12.60;;;25.60;99.90;;;;;;5063917;28;20554;-75
2022/05/04 12:16:08;;;;;;;17.30;12.87;;;25.10;99.30;;;;;;5047496;28;20181;-73
2022/05/04 12:18:35;;;;;;;14.13;10.73;;;25.20;98.90;;;;;;5043268;28;20497;-76
2022/05/04 12:21:06;;;;;;;19.63;13.13;;;25.70;99.80;;;;;;5044559;28;20463;-76
2022/05/04 12:23:34;;;;;;;26.03;15.27;;;26.50;95.90;;;;;;5061656;28;20947;-76
2022/05/04 12:25:59;;;;;;;17.47;12.23;;;26.70;94.60;;;;;;5067431;28;20428;-75
2022/05/04 12:28:25;;;;;;;16.00;12.23;;;27.10;94.40;;;;;;5045531;28;20524;-72
2022/05/04 12:33:39;;;;;;;15.80;12.10;;;27.30;93.20;;;;;;5062529;28;20426;-77
2022/05/04 12:36:08;;;;;;;19.20;12.90;;;27.00;90.80;;;;;;5063275;28;20443;-76
2022/05/04 12:38:36;;;;;;;18.37;11.60;;;26.30;89.90;;;;;;5058168;28;20476;-75
2022/05/04 12:41:03;;;;;;;16.53;12.70;;;25.60;91.80;;;;;;5064794;28;20440;-74
2022/05/04 12:43:34;;;;;;;23.40;13.93;;;25.40;91.60;;;;;;5064987;28;20436;-73
2022/05/04 12:46:01;;;;;;;13.80;10.73;;;24.70;90.90;;;;;;5046949;28;20433;-74
2022/05/04 12:48:27;;;;;;;16.03;11.97;;;24.90;91.60;;;;;;5058451;28;20517;-75
2022/05/04 12:50:57;;;;;;;23.43;13.80;;;24.60;90.50;;;;;;5065760;28;20452;-74
2022/05/04 12:53:24;;;;;;;23.33;14.00;;;24.30;90.50;;;;;;5059641;28;20476;-75
2022/05/04 12:58:35;;;;;;;19.70;12.73;;;24.30;92.40;;;;;;5060846;28;20511;-75
2022/05/04 13:01:02;;;;;;;16.10;11.23;;;24.70;92.50;;;;;;5060293;28;20840;-75
2022/05/04 13:03:28;;;;;;;18.67;11.23;;;25.40;92.00;;;;;;5059522;28;20333;-74
2022/05/04 13:05:53;;;;;;;22.00;13.33;;;26.20;91.70;;;;;;5063183;28;20518;-75
2022/05/04 13:08:19;;;;;;;23.17;12.80;;;27.10;90.80;;;;;;5048795;28;20226;-74
2022/05/04 13:10:47;;;;;;;18.40;12.03;;;27.90;90.00;;;;;;5061544;28;20768;-76
2022/05/04 13:13:13;;;;;;;22.00;13.10;;;28.60;87.60;;;;;;5040713;28;20277;-75
2022/05/04 13:15:39;;;;;;;22.70;12.83;;;29.60;85.90;;;;;;5060763;28;20566;-75
2022/05/04 13:18:04;;;;;;;15.73;11.37;;;29.80;80.70;;;;;;5054429;28;20208;-74
2022/05/04 13:20:30;;;;;;;15.37;12.20;;;29.60;78.00;;;;;;5058587;28;20194;-74
2022/05/04 13:22:56;;;;;;;20.60;12.37;;;29.50;76.60;;;;;;5061215;28;20200;-73
2022/05/04 13:25:22;;;;;;;25.13;13.87;;;29.00;78.90;;;;;;5061359;28;20206;-74
2022/05/04 13:27:47;;;;;;;16.27;11.77;;;28.60;77.10;;;;;;5061994;28;20478;-73
2022/05/04 13:30:13;;;;;;;21.40;14.07;;;27.70;78.70;;;;;;5060949;28;20209;-73
2022/05/04 13:32:39;;;;;;;17.40;11.97;;;27.10;78.80;;;;;;5061074;28;20675;-72
2022/05/04 13:35:04;;;;;;;26.97;15.27;;;27.30;80.30;;;;;;5064195;28;20195;-72
2022/05/04 13:37:30;;;;;;;19.13;13.37;;;27.40;76.90;;;;;;5057604;28;20196;-72
2022/05/04 13:39:56;;;;;;;14.90;10.70;;;27.10;79.50;;;;;;5055936;28;20178;-71
2022/05/04 13:42:22;;;;;;;21.20;12.83;;;27.10;78.30;;;;;;5062792;28;20629;-73
2022/05/04 13:44:47;;;;;;;18.80;11.63;;;26.60;76.90;;;;;;5060606;28;20419;-73
2022/05/04 13:47:13;;;;;;;42.07;18.23;;;26.80;77.30;;;;;;5042130;28;20273;-72
2022/05/04 13:49:38;;;;;;;16.90;11.67;;;27.10;76.40;;;;;;5060726;28;20589;-72
2022/05/04 13:54:49;;;;;;;20.50;13.70;;;28.70;73.90;;;;;;5069826;28;20273;-73
2022/05/04 13:57:15;;;;;;;18.70;12.80;;;27.80;71.30;;;;;;5041781;28;21050;-72
2022/05/04 13:59:41;;;;;;;20.30;13.10;;;28.20;73.60;;;;;;5064813;28;20471;-72
2022/05/04 14:02:07;;;;;;;26.17;14.40;;;28.00;69.60;;;;;;5062859;28;20442;-70
2022/05/04 14:04:33;;;;;;;17.87;13.23;;;27.80;70.80;;;;;;5064222;28;20262;-72
2022/05/04 14:06:59;;;;;;;34.33;17.20;;;27.30;69.50;;;;;;5057457;28;20421;-72
2022/05/04 14:09:24;;;;;;;27.53;15.73;;;27.20;70.30;;;;;;5048554;28;20178;-71
2022/05/04 14:11:50;;;;;;;17.77;11.60;;;27.00;72.60;;;;;;5060937;28;20210;-71
2022/05/04 14:16:59;;;;;;;37.03;16.63;;;26.90;70.80;;;;;;5060103;28;20190;-73
2022/05/04 14:19:25;;;;;;;15.83;11.00;;;27.70;72.90;;;;;;5072285;28;20487;-73
2022/05/04 14:21:52;;;;;;;15.40;11.50;;;27.80;70.00;;;;;;5043339;28;20477;-71
2022/05/04 14:24:18;;;;;;;13.77;9.97;;;27.50;71.20;;;;;;5063294;28;20183;-72
2022/05/04 14:26:44;;;;;;;19.23;11.50;;;27.20;72.80;;;;;;5068281;28;20823;-72
2022/05/04 14:29:09;;;;;;;17.57;11.00;;;27.00;73.00;;;;;;5041890;28;20202;-71
2022/05/04 14:31:35;;;;;;;22.03;12.50;;;26.80;72.50;;;;;;5063167;28;20240;-71
2022/05/04 14:34:01;;;;;;;20.80;10.80;;;26.40;71.10;;;;;;5076717;28;20201;-73
2022/05/04 14:36:26;;;;;;;18.27;11.93;;;25.90;74.60;;;;;;5073456;28;20558;-73
2022/05/04 14:38:52;;;;;;;19.37;11.67;;;25.20;75.50;;;;;;5061747;28;20202;-72
2022/05/04 14:41:19;;;;;;;12.97;10.47;;;24.50;78.90;;;;;;5063285;28;20194;-72
2022/05/04 14:43:44;;;;;;;19.70;11.67;;;24.30;78.60;;;;;;5066002;28;20246;-71
2022/05/04 14:46:10;;;;;;;15.10;11.17;;;24.20;80.50;;;;;;5053907;28;20431;-71
2022/05/04 14:48:35;;;;;;;16.80;12.40;;;24.10;81.10;;;;;;5066018;28;20193;-71
2022/05/04 14:51:01;;;;;;;21.87;12.43;;;24.10;80.70;;;;;;5060134;28;20206;-75
2022/05/04 14:53:26;;;;;;;16.53;10.20;;;24.20;82.10;;;;;;5047188;28;20185;-75
2022/05/04 14:55:53;;;;;;;17.47;11.53;;;24.10;82.20;;;;;;5061332;28;20595;-73
2022/05/04 14:58:19;;;;;;;21.93;12.30;;;23.70;82.20;;;;;;5039238;28;20229;-73
2022/05/04 15:00:44;;;;;;;24.20;13.10;;;23.30;82.20;;;;;;5059632;28;20472;-71
2022/05/04 15:05:54;;;;;;;21.30;11.70;;;23.20;84.00;;;;;;5046716;28;20288;-74
2022/05/04 15:08:19;;;;;;;19.87;12.70;;;23.10;83.70;;;;;;5060144;28;20441;-70
2022/05/04 15:10:45;;;;;;;24.87;14.17;;;22.70;84.00;;;;;;5066817;28;20263;-72
2022/05/04 15:13:10;;;;;;;17.07;10.93;;;22.60;85.70;;;;;;5063847;28;20185;-76
2022/05/04 15:15:36;;;;;;;29.23;16.23;;;22.20;86.30;;;;;;5062931;28;20258;-73
2022/05/04 15:18:02;;;;;;;21.77;13.87;;;21.90;86.20;;;;;;5048229;28;20198;-76
2022/05/04 15:20:29;;;;;;;28.63;14.73;;;21.70;85.60;;;;;;5059519;28;20285;-73
2022/05/04 15:22:54;;;;;;;22.00;14.03;;;21.70;88.20;;;;;;5064450;28;20427;-74
2022/05/04 15:25:20;;;;;;;24.17;14.27;;;21.60;86.30;;;;;;5062290;28;20511;-76
2022/05/04 15:27:46;;;;;;;23.77;14.10;;;21.60;87.30;;;;;;5043052;28;20182;-75
2022/05/04 15:30:12;;;;;;;20.30;12.50;;;21.30;86.60;;;;;;5049106;28;20202;-74
2022/05/04 15:32:39;;;;;;;18.73;12.00;;;21.30;87.30;;;;;;5063849;28;20178;-72
2022/05/04 15:35:05;;;;;;;28.07;12.20;;;21.10;87.40;;;;;;5066601;28;20439;-71
2022/05/04 15:37:31;;;;;;;26.60;11.40;;;20.60;90.30;;;;;;5060799;28;20510;-71
2022/05/04 15:39:57;;;;;;;24.23;11.03;;;19.40;92.60;;;;;;5053259;28;20474;-72
2022/05/04 15:42:23;;;;;;;22.03;9.37;;;19.30;93.10;;;;;;5045646;28;20457;-72
2022/05/04 15:44:48;;;;;;;24.23;10.63;;;19.10;94.60;;;;;;5060455;28;20518;-72
2022/05/04 15:47:14;;;;;;;30.73;13.50;;;18.70;97.10;;;;;;5033114;28;20793;-70
2022/05/04 15:49:39;;;;;;;21.97;12.03;;;18.20;99.90;;;;;;5058548;28;20193;-71
2022/05/04 15:52:06;;;;;;;23.30;13.20;;;17.70;99.90;;;;;;5043699;28;20655;-74
2022/05/04 15:54:33;;;;;;;24.53;13.37;;;17.20;99.90;;;;;;5064900;28;20643;-71
2022/05/04 15:56:59;;;;;;;37.63;16.00;;;16.80;99.90;;;;;;5065309;28;20499;-72
2022/05/04 15:59:24;;;;;;;18.83;12.03;;;16.40;99.90;;;;;;5039540;28;20495;-71
2022/05/04 16:01:50;;;;;;;20.40;11.67;;;16.00;99.90;;;;;;5040155;28;20448;-72
2022/05/04 16:04:15;;;;;;;16.63;11.40;;;15.70;99.90;;;;;;5044775;28;20264;-70
2022/05/04 16:06:41;;;;;;;21.53;12.60;;;15.40;99.90;;;;;;5062731;28;20663;-72
2022/05/04 16:09:10;;;;;;;15.30;11.20;;;15.40;99.90;;;;;;5069005;28;20194;-71
2022/05/04 16:11:37;;;;;;;25.80;13.70;;;15.20;99.90;;;;;;5077097;28;20209;-73
2022/05/04 16:14:02;;;;;;;32.27;16.63;;;15.10;99.90;;;;;;5067957;28;20424;-71
2022/05/04 16:16:28;;;;;;;26.87;14.87;;;15.10;99.90;;;;;;5074551;28;20439;-75
2022/05/04 16:21:41;;;;;;;22.37;13.03;;;15.00;99.90;;;;;;5071946;28;20631;-74
2022/05/04 16:24:12;;;;;;;25.07;14.23;;;15.00;99.90;;;;;;5057205;28;20548;-76
2022/05/04 16:26:39;;;;;;;24.07;13.03;;;15.10;99.90;;;;;;5064980;28;20447;-73
2022/05/04 16:29:05;;;;;;;27.83;14.20;;;15.10;99.90;;;;;;5044348;28;20444;-75
2022/05/04 16:31:31;;;;;;;19.13;12.20;;;15.20;99.90;;;;;;5047622;28;21003;-72
2022/05/04 16:33:57;;;;;;;19.30;11.77;;;15.20;99.90;;;;;;5042249;28;20441;-76
2022/05/04 16:36:22;;;;;;;16.43;10.57;;;15.30;99.90;;;;;;5068315;28;20503;-76
2022/05/04 16:38:48;;;;;;;18.53;11.43;;;15.60;99.90;;;;;;5061949;28;20205;-75
2022/05/04 16:41:14;;;;;;;23.60;13.70;;;15.50;99.90;;;;;;5037223;28;20205;-72
2022/05/04 16:43:39;;;;;;;26.30;13.70;;;15.50;99.90;;;;;;5063347;28;20281;-73
2022/05/04 16:46:05;;;;;;;31.07;15.50;;;15.50;99.90;;;;;;5036056;28;20184;-71
2022/05/04 16:48:31;;;;;;;22.50;12.37;;;15.60;99.90;;;;;;5059868;28;21491;-70
2022/05/04 16:50:57;;;;;;;18.90;10.60;;;15.60;99.90;;;;;;5053519;28;20440;-71
